Terminal Aerodrome Forecast
Issued by NWS Portland, OR

Home | Current Version | Previous Version | Text Only | Print | Product List | Glossary On
Versions: 1 2 3 4 5 6 7 8 9 10 11 12 13
000
FTUS46 KPQR 191145
TAFAST
TAF
KAST 191145Z 1912/2012 11007KT P6SM -SHRA SCT025 OVC040
     FM191400 18011KT P6SM -SHRA SCT025 OVC050
     FM191800 21015G25KT 5SM -SHRA BR BKN025 OVC050
     FM192200 21011KT P6SM -SHRA SCT025 OVC050
     FM200400 19007KT P6SM -SHRA SCT025 BKN050
     FM200700 11004KT P6SM -SHRA OVC050=

USA.gov is the U.S. government's official web portal to all federal, state and local government web resources and services.